sensor_id;sensor_type;location;lat;lon;timestamp;P1;durP1;ratioP1;P2;durP2;ratioP2
57225;SDS011;43082;43.568;22.256;2023-12-14T00:01:27;34.90;;;25.08;;
57225;SDS011;43082;43.568;22.256;2023-12-14T00:03:52;33.83;;;24.63;;
57225;SDS011;43082;43.568;22.256;2023-12-14T00:06:17;30.88;;;24.15;;
57225;SDS011;43082;43.568;22.256;2023-12-14T00:08:43;30.95;;;23.27;;
57225;SDS011;43082;43.568;22.256;2023-12-14T00:11:09;34.22;;;23.33;;
57225;SDS011;43082;43.568;22.256;2023-12-14T00:13:35;33.97;;;24.25;;
57225;SDS011;43082;43.568;22.256;2023-12-14T00:16:01;30.25;;;22.73;;
57225;SDS011;43082;43.568;22.256;2023-12-14T00:18:27;31.75;;;22.08;;
57225;SDS011;43082;43.568;22.256;2023-12-14T00:20:52;32.08;;;23.73;;
57225;SDS011;43082;43.568;22.256;2023-12-14T00:23:19;35.58;;;23.33;;
57225;SDS011;43082;43.568;22.256;2023-12-14T00:25:44;33.75;;;22.75;;
57225;SDS011;43082;43.568;22.256;2023-12-14T00:28:10;33.88;;;24.77;;
57225;SDS011;43082;43.568;22.256;2023-12-14T00:30:35;36.80;;;23.27;;
57225;SDS011;43082;43.568;22.256;2023-12-14T00:33:01;33.92;;;24.25;;
57225;SDS011;43082;43.568;22.256;2023-12-14T00:35:26;35.50;;;22.67;;
57225;SDS011;43082;43.568;22.256;2023-12-14T00:37:52;38.72;;;23.90;;
57225;SDS011;43082;43.568;22.256;2023-12-14T00:40:17;35.85;;;25.35;;
57225;SDS011;43082;43.568;22.256;2023-12-14T00:42:42;34.53;;;25.10;;
57225;SDS011;43082;43.568;22.256;2023-12-14T00:45:08;36.20;;;25.00;;
57225;SDS011;43082;43.568;22.256;2023-12-14T00:47:34;33.95;;;24.98;;
57225;SDS011;43082;43.568;22.256;2023-12-14T00:49:59;26.95;;;18.35;;
57225;SDS011;43082;43.568;22.256;2023-12-14T00:52:25;37.17;;;24.80;;
57225;SDS011;43082;43.568;22.256;2023-12-14T00:54:50;36.55;;;25.02;;
57225;SDS011;43082;43.568;22.256;2023-12-14T00:57:16;35.92;;;26.20;;
57225;SDS011;43082;43.568;22.256;2023-12-14T00:59:41;33.83;;;24.65;;
57225;SDS011;43082;43.568;22.256;2023-12-14T01:02:07;34.20;;;23.67;;
57225;SDS011;43082;43.568;22.256;2023-12-14T01:04:32;33.38;;;24.42;;
57225;SDS011;43082;43.568;22.256;2023-12-14T01:06:58;34.67;;;25.33;;
57225;SDS011;43082;43.568;22.256;2023-12-14T01:09:23;31.75;;;23.02;;
57225;SDS011;43082;43.568;22.256;2023-12-14T01:11:49;37.35;;;26.25;;
57225;SDS011;43082;43.568;22.256;2023-12-14T01:14:14;31.67;;;19.88;;
57225;SDS011;43082;43.568;22.256;2023-12-14T01:16:40;39.70;;;28.17;;
57225;SDS011;43082;43.568;22.256;2023-12-14T01:19:05;33.80;;;23.23;;
57225;SDS011;43082;43.568;22.256;2023-12-14T01:21:31;33.88;;;24.20;;
57225;SDS011;43082;43.568;22.256;2023-12-14T01:23:57;32.10;;;22.83;;
57225;SDS011;43082;43.568;22.256;2023-12-14T01:26:22;38.70;;;26.92;;
57225;SDS011;43082;43.568;22.256;2023-12-14T01:28:48;28.33;;;20.17;;
57225;SDS011;43082;43.568;22.256;2023-12-14T01:31:13;32.72;;;25.92;;
57225;SDS011;43082;43.568;22.256;2023-12-14T01:33:39;35.83;;;25.58;;
57225;SDS011;43082;43.568;22.256;2023-12-14T01:36:04;34.80;;;22.60;;
57225;SDS011;43082;43.568;22.256;2023-12-14T01:38:30;43.63;;;28.80;;
57225;SDS011;43082;43.568;22.256;2023-12-14T01:40:56;36.13;;;26.00;;
57225;SDS011;43082;43.568;22.256;2023-12-14T01:43:21;36.65;;;25.13;;
57225;SDS011;43082;43.568;22.256;2023-12-14T01:45:47;35.72;;;26.33;;
57225;SDS011;43082;43.568;22.256;2023-12-14T01:48:12;40.38;;;27.40;;
57225;SDS011;43082;43.568;22.256;2023-12-14T01:50:38;35.05;;;24.48;;
57225;SDS011;43082;43.568;22.256;2023-12-14T01:53:03;38.40;;;26.95;;
57225;SDS011;43082;43.568;22.256;2023-12-14T01:55:29;42.28;;;29.08;;
57225;SDS011;43082;43.568;22.256;2023-12-14T01:57:54;38.72;;;27.17;;
57225;SDS011;43082;43.568;22.256;2023-12-14T02:01:03;35.83;;;26.33;;
57225;SDS011;43082;43.568;22.256;2023-12-14T02:03:11;44.35;;;30.08;;
57225;SDS011;43082;43.568;22.256;2023-12-14T02:05:37;46.00;;;33.03;;
57225;SDS011;43082;43.568;22.256;2023-12-14T02:08:02;41.58;;;28.05;;
57225;SDS011;43082;43.568;22.256;2023-12-14T02:10:28;41.75;;;29.00;;
57225;SDS011;43082;43.568;22.256;2023-12-14T02:12:53;40.47;;;28.13;;
57225;SDS011;43082;43.568;22.256;2023-12-14T02:15:19;38.45;;;26.25;;
57225;SDS011;43082;43.568;22.256;2023-12-14T02:17:45;45.10;;;30.40;;
57225;SDS011;43082;43.568;22.256;2023-12-14T02:20:10;40.28;;;28.45;;
57225;SDS011;43082;43.568;22.256;2023-12-14T02:22:48;47.50;;;33.17;;
57225;SDS011;43082;43.568;22.256;2023-12-14T02:25:15;43.90;;;31.70;;
57225;SDS011;43082;43.568;22.256;2023-12-14T02:27:41;47.63;;;33.13;;
57225;SDS011;43082;43.568;22.256;2023-12-14T02:30:06;45.22;;;31.77;;
57225;SDS011;43082;43.568;22.256;2023-12-14T02:32:32;42.17;;;28.58;;
57225;SDS011;43082;43.568;22.256;2023-12-14T02:34:58;44.15;;;30.63;;
57225;SDS011;43082;43.568;22.256;2023-12-14T02:37:23;41.60;;;29.50;;
57225;SDS011;43082;43.568;22.256;2023-12-14T02:39:49;43.10;;;31.50;;
57225;SDS011;43082;43.568;22.256;2023-12-14T02:42:14;40.95;;;28.67;;
57225;SDS011;43082;43.568;22.256;2023-12-14T02:44:39;44.92;;;28.95;;
57225;SDS011;43082;43.568;22.256;2023-12-14T02:47:05;43.45;;;30.73;;
57225;SDS011;43082;43.568;22.256;2023-12-14T02:49:30;43.60;;;25.35;;
57225;SDS011;43082;43.568;22.256;2023-12-14T02:51:56;44.63;;;26.08;;
57225;SDS011;43082;43.568;22.256;2023-12-14T02:54:21;39.45;;;27.27;;
57225;SDS011;43082;43.568;22.256;2023-12-14T02:56:47;39.13;;;26.45;;
57225;SDS011;43082;43.568;22.256;2023-12-14T02:59:12;42.80;;;29.63;;
57225;SDS011;43082;43.568;22.256;2023-12-14T03:01:37;37.28;;;23.70;;
57225;SDS011;43082;43.568;22.256;2023-12-14T03:04:04;33.22;;;21.92;;
57225;SDS011;43082;43.568;22.256;2023-12-14T03:06:29;38.58;;;23.38;;
57225;SDS011;43082;43.568;22.256;2023-12-14T03:08:55;35.10;;;24.48;;
57225;SDS011;43082;43.568;22.256;2023-12-14T03:11:21;32.47;;;22.58;;
57225;SDS011;43082;43.568;22.256;2023-12-14T03:13:47;36.13;;;24.77;;
57225;SDS011;43082;43.568;22.256;2023-12-14T03:16:13;41.45;;;28.40;;
57225;SDS011;43082;43.568;22.256;2023-12-14T03:18:38;32.78;;;21.20;;
57225;SDS011;43082;43.568;22.256;2023-12-14T03:21:04;35.92;;;26.08;;
57225;SDS011;43082;43.568;22.256;2023-12-14T03:23:29;35.38;;;21.05;;
57225;SDS011;43082;43.568;22.256;2023-12-14T03:25:55;36.55;;;24.48;;
57225;SDS011;43082;43.568;22.256;2023-12-14T03:28:20;34.95;;;21.08;;
57225;SDS011;43082;43.568;22.256;2023-12-14T03:30:45;36.92;;;25.80;;
57225;SDS011;43082;43.568;22.256;2023-12-14T03:33:11;32.78;;;18.95;;
57225;SDS011;43082;43.568;22.256;2023-12-14T03:35:36;36.20;;;25.70;;
57225;SDS011;43082;43.568;22.256;2023-12-14T03:38:02;32.70;;;20.50;;
57225;SDS011;43082;43.568;22.256;2023-12-14T03:40:27;34.97;;;21.33;;
57225;SDS011;43082;43.568;22.256;2023-12-14T03:42:53;33.60;;;24.65;;
57225;SDS011;43082;43.568;22.256;2023-12-14T03:45:18;34.85;;;25.15;;
57225;SDS011;43082;43.568;22.256;2023-12-14T03:47:44;29.88;;;20.42;;
57225;SDS011;43082;43.568;22.256;2023-12-14T03:50:10;32.40;;;23.77;;
57225;SDS011;43082;43.568;22.256;2023-12-14T03:52:36;33.50;;;23.35;;
57225;SDS011;43082;43.568;22.256;2023-12-14T03:55:02;33.80;;;24.55;;
57225;SDS011;43082;43.568;22.256;2023-12-14T03:57:27;35.95;;;24.73;;
57225;SDS011;43082;43.568;22.256;2023-12-14T03:59:53;34.85;;;24.10;;
57225;SDS011;43082;43.568;22.256;2023-12-14T04:02:18;31.38;;;22.70;;
57225;SDS011;43082;43.568;22.256;2023-12-14T04:04:44;31.02;;;23.63;;
57225;SDS011;43082;43.568;22.256;2023-12-14T04:07:10;33.63;;;24.48;;
57225;SDS011;43082;43.568;22.256;2023-12-14T04:09:35;37.67;;;28.77;;
57225;SDS011;43082;43.568;22.256;2023-12-14T04:12:01;32.20;;;23.38;;
57225;SDS011;43082;43.568;22.256;2023-12-14T04:14:26;33.95;;;24.75;;
57225;SDS011;43082;43.568;22.256;2023-12-14T04:16:51;34.88;;;24.85;;
57225;SDS011;43082;43.568;22.256;2023-12-14T04:19:17;44.67;;;32.72;;
57225;SDS011;43082;43.568;22.256;2023-12-14T04:21:42;42.30;;;30.02;;
57225;SDS011;43082;43.568;22.256;2023-12-14T04:24:08;41.38;;;30.02;;
57225;SDS011;43082;43.568;22.256;2023-12-14T04:26:34;41.35;;;31.00;;
57225;SDS011;43082;43.568;22.256;2023-12-14T04:29:00;39.67;;;29.30;;
57225;SDS011;43082;43.568;22.256;2023-12-14T04:31:25;40.80;;;30.63;;
57225;SDS011;43082;43.568;22.256;2023-12-14T04:33:50;38.90;;;27.20;;
57225;SDS011;43082;43.568;22.256;2023-12-14T04:36:16;42.03;;;29.50;;
57225;SDS011;43082;43.568;22.256;2023-12-14T04:38:41;37.17;;;27.90;;
57225;SDS011;43082;43.568;22.256;2023-12-14T04:41:07;46.45;;;33.70;;
57225;SDS011;43082;43.568;22.256;2023-12-14T04:43:33;48.88;;;34.45;;
57225;SDS011;43082;43.568;22.256;2023-12-14T04:45:58;56.05;;;41.05;;
57225;SDS011;43082;43.568;22.256;2023-12-14T04:48:24;43.88;;;32.70;;
57225;SDS011;43082;43.568;22.256;2023-12-14T04:50:49;42.40;;;29.98;;
57225;SDS011;43082;43.568;22.256;2023-12-14T04:53:15;41.88;;;28.17;;
57225;SDS011;43082;43.568;22.256;2023-12-14T04:55:40;37.35;;;26.40;;
57225;SDS011;43082;43.568;22.256;2023-12-14T04:58:06;38.47;;;27.73;;
57225;SDS011;43082;43.568;22.256;2023-12-14T05:00:31;33.95;;;23.90;;
57225;SDS011;43082;43.568;22.256;2023-12-14T05:02:56;30.88;;;23.02;;
57225;SDS011;43082;43.568;22.256;2023-12-14T05:05:22;35.78;;;24.77;;
57225;SDS011;43082;43.568;22.256;2023-12-14T05:07:47;49.53;;;33.30;;
57225;SDS011;43082;43.568;22.256;2023-12-14T05:10:13;53.33;;;38.38;;
57225;SDS011;43082;43.568;22.256;2023-12-14T05:12:38;53.97;;;37.38;;
57225;SDS011;43082;43.568;22.256;2023-12-14T05:15:05;59.63;;;41.45;;
57225;SDS011;43082;43.568;22.256;2023-12-14T05:17:30;50.63;;;36.70;;
57225;SDS011;43082;43.568;22.256;2023-12-14T05:19:56;47.45;;;34.83;;
57225;SDS011;43082;43.568;22.256;2023-12-14T05:22:21;38.88;;;29.23;;
57225;SDS011;43082;43.568;22.256;2023-12-14T05:24:47;41.72;;;27.75;;
57225;SDS011;43082;43.568;22.256;2023-12-14T05:27:13;40.45;;;28.65;;
57225;SDS011;43082;43.568;22.256;2023-12-14T05:29:39;46.47;;;33.53;;
57225;SDS011;43082;43.568;22.256;2023-12-14T05:32:04;40.83;;;30.48;;
57225;SDS011;43082;43.568;22.256;2023-12-14T05:34:30;37.97;;;26.98;;
57225;SDS011;43082;43.568;22.256;2023-12-14T05:36:55;49.85;;;37.95;;
57225;SDS011;43082;43.568;22.256;2023-12-14T05:39:21;68.57;;;49.15;;
57225;SDS011;43082;43.568;22.256;2023-12-14T05:41:46;60.20;;;45.72;;
57225;SDS011;43082;43.568;22.256;2023-12-14T05:44:12;57.17;;;41.03;;
57225;SDS011;43082;43.568;22.256;2023-12-14T05:46:38;49.55;;;38.90;;
57225;SDS011;43082;43.568;22.256;2023-12-14T05:49:03;62.58;;;44.50;;
57225;SDS011;43082;43.568;22.256;2023-12-14T05:51:29;68.38;;;49.00;;
57225;SDS011;43082;43.568;22.256;2023-12-14T05:53:55;65.82;;;47.10;;
57225;SDS011;43082;43.568;22.256;2023-12-14T05:56:21;56.42;;;42.13;;
57225;SDS011;43082;43.568;22.256;2023-12-14T05:58:46;33.53;;;23.98;;
57225;SDS011;43082;43.568;22.256;2023-12-14T06:01:11;38.13;;;29.55;;
57225;SDS011;43082;43.568;22.256;2023-12-14T06:03:38;44.85;;;34.65;;
57225;SDS011;43082;43.568;22.256;2023-12-14T06:06:03;51.22;;;36.42;;
57225;SDS011;43082;43.568;22.256;2023-12-14T06:08:29;61.80;;;45.13;;
57225;SDS011;43082;43.568;22.256;2023-12-14T06:10:54;59.13;;;44.13;;
57225;SDS011;43082;43.568;22.256;2023-12-14T06:13:20;82.40;;;60.25;;
57225;SDS011;43082;43.568;22.256;2023-12-14T06:15:46;78.05;;;57.70;;
57225;SDS011;43082;43.568;22.256;2023-12-14T06:18:12;164.30;;;105.55;;
57225;SDS011;43082;43.568;22.256;2023-12-14T06:20:37;170.43;;;106.85;;
57225;SDS011;43082;43.568;22.256;2023-12-14T06:23:02;81.85;;;54.13;;
57225;SDS011;43082;43.568;22.256;2023-12-14T06:25:28;75.43;;;56.42;;
57225;SDS011;43082;43.568;22.256;2023-12-14T06:27:53;59.85;;;47.85;;
57225;SDS011;43082;43.568;22.256;2023-12-14T06:30:19;58.45;;;46.03;;
57225;SDS011;43082;43.568;22.256;2023-12-14T06:32:45;81.65;;;56.58;;
57225;SDS011;43082;43.568;22.256;2023-12-14T06:35:10;80.60;;;60.25;;
57225;SDS011;43082;43.568;22.256;2023-12-14T06:37:36;140.15;;;113.53;;
57225;SDS011;43082;43.568;22.256;2023-12-14T06:40:01;87.43;;;77.63;;
57225;SDS011;43082;43.568;22.256;2023-12-14T06:42:27;66.03;;;50.58;;
57225;SDS011;43082;43.568;22.256;2023-12-14T06:44:53;77.38;;;61.85;;
57225;SDS011;43082;43.568;22.256;2023-12-14T06:47:18;65.18;;;51.05;;
57225;SDS011;43082;43.568;22.256;2023-12-14T06:49:44;63.20;;;51.65;;
57225;SDS011;43082;43.568;22.256;2023-12-14T06:52:09;73.13;;;53.88;;
57225;SDS011;43082;43.568;22.256;2023-12-14T06:54:35;66.32;;;51.08;;
57225;SDS011;43082;43.568;22.256;2023-12-14T06:57:00;75.90;;;54.72;;
57225;SDS011;43082;43.568;22.256;2023-12-14T06:59:26;66.20;;;51.80;;
57225;SDS011;43082;43.568;22.256;2023-12-14T07:01:51;66.32;;;53.88;;
57225;SDS011;43082;43.568;22.256;2023-12-14T07:04:17;67.13;;;49.55;;
57225;SDS011;43082;43.568;22.256;2023-12-14T07:06:49;74.10;;;58.70;;
57225;SDS011;43082;43.568;22.256;2023-12-14T07:09:16;63.22;;;51.92;;
57225;SDS011;43082;43.568;22.256;2023-12-14T07:11:41;61.33;;;48.53;;
57225;SDS011;43082;43.568;22.256;2023-12-14T07:14:07;80.43;;;65.18;;
57225;SDS011;43082;43.568;22.256;2023-12-14T07:16:32;70.70;;;54.40;;
57225;SDS011;43082;43.568;22.256;2023-12-14T07:18:58;72.43;;;53.75;;
57225;SDS011;43082;43.568;22.256;2023-12-14T07:21:23;89.03;;;65.57;;
57225;SDS011;43082;43.568;22.256;2023-12-14T07:23:48;100.53;;;72.00;;
57225;SDS011;43082;43.568;22.256;2023-12-14T07:26:14;92.93;;;67.15;;
57225;SDS011;43082;43.568;22.256;2023-12-14T07:28:39;108.97;;;78.45;;
57225;SDS011;43082;43.568;22.256;2023-12-14T07:31:05;99.80;;;68.05;;
57225;SDS011;43082;43.568;22.256;2023-12-14T07:33:30;76.50;;;53.55;;
57225;SDS011;43082;43.568;22.256;2023-12-14T07:35:56;80.47;;;58.65;;
57225;SDS011;43082;43.568;22.256;2023-12-14T07:38:21;69.38;;;53.70;;
57225;SDS011;43082;43.568;22.256;2023-12-14T07:40:47;76.85;;;59.22;;
57225;SDS011;43082;43.568;22.256;2023-12-14T07:43:12;106.05;;;78.10;;
57225;SDS011;43082;43.568;22.256;2023-12-14T07:45:37;85.68;;;62.15;;
57225;SDS011;43082;43.568;22.256;2023-12-14T07:48:03;123.20;;;91.05;;
57225;SDS011;43082;43.568;22.256;2023-12-14T07:50:31;96.43;;;75.57;;
57225;SDS011;43082;43.568;22.256;2023-12-14T07:52:57;96.13;;;74.75;;
57225;SDS011;43082;43.568;22.256;2023-12-14T07:55:22;83.07;;;65.68;;
57225;SDS011;43082;43.568;22.256;2023-12-14T07:57:47;81.03;;;64.78;;
57225;SDS011;43082;43.568;22.256;2023-12-14T08:00:13;80.43;;;58.63;;
57225;SDS011;43082;43.568;22.256;2023-12-14T08:02:40;67.07;;;52.38;;
57225;SDS011;43082;43.568;22.256;2023-12-14T08:05:07;62.25;;;48.70;;
57225;SDS011;43082;43.568;22.256;2023-12-14T08:07:32;71.15;;;55.40;;
57225;SDS011;43082;43.568;22.256;2023-12-14T08:09:58;76.13;;;56.38;;
57225;SDS011;43082;43.568;22.256;2023-12-14T08:12:24;98.10;;;69.40;;
57225;SDS011;43082;43.568;22.256;2023-12-14T08:14:50;90.70;;;67.15;;
57225;SDS011;43082;43.568;22.256;2023-12-14T08:17:16;154.48;;;107.60;;
57225;SDS011;43082;43.568;22.256;2023-12-14T08:19:42;121.90;;;86.70;;
57225;SDS011;43082;43.568;22.256;2023-12-14T08:22:08;123.93;;;90.57;;
57225;SDS011;43082;43.568;22.256;2023-12-14T08:24:36;216.60;;;155.90;;
57225;SDS011;43082;43.568;22.256;2023-12-14T08:27:02;204.30;;;147.57;;
57225;SDS011;43082;43.568;22.256;2023-12-14T08:29:28;191.00;;;135.10;;
57225;SDS011;43082;43.568;22.256;2023-12-14T08:31:53;191.90;;;144.50;;
57225;SDS011;43082;43.568;22.256;2023-12-14T08:34:22;151.75;;;111.28;;
57225;SDS011;43082;43.568;22.256;2023-12-14T08:36:49;164.38;;;115.60;;
57225;SDS011;43082;43.568;22.256;2023-12-14T08:39:14;136.80;;;99.78;;
57225;SDS011;43082;43.568;22.256;2023-12-14T08:41:40;100.97;;;73.85;;
57225;SDS011;43082;43.568;22.256;2023-12-14T08:44:06;115.28;;;86.78;;
57225;SDS011;43082;43.568;22.256;2023-12-14T08:47:06;86.82;;;65.55;;
57225;SDS011;43082;43.568;22.256;2023-12-14T08:49:24;77.18;;;61.15;;
57225;SDS011;43082;43.568;22.256;2023-12-14T08:51:50;99.47;;;81.05;;
57225;SDS011;43082;43.568;22.256;2023-12-14T08:54:15;142.68;;;106.25;;
57225;SDS011;43082;43.568;22.256;2023-12-14T08:56:40;131.00;;;105.50;;
57225;SDS011;43082;43.568;22.256;2023-12-14T08:59:06;107.38;;;90.60;;
57225;SDS011;43082;43.568;22.256;2023-12-14T09:01:32;40.70;;;31.98;;
57225;SDS011;43082;43.568;22.256;2023-12-14T09:03:58;56.38;;;43.90;;
57225;SDS011;43082;43.568;22.256;2023-12-14T09:06:23;51.85;;;42.63;;
57225;SDS011;43082;43.568;22.256;2023-12-14T09:08:48;51.15;;;41.05;;
57225;SDS011;43082;43.568;22.256;2023-12-14T09:11:14;60.05;;;49.38;;
57225;SDS011;43082;43.568;22.256;2023-12-14T09:13:40;52.35;;;42.20;;
57225;SDS011;43082;43.568;22.256;2023-12-14T09:16:06;53.78;;;43.65;;
57225;SDS011;43082;43.568;22.256;2023-12-14T09:18:32;56.30;;;45.53;;
57225;SDS011;43082;43.568;22.256;2023-12-14T09:20:57;56.40;;;46.97;;
57225;SDS011;43082;43.568;22.256;2023-12-14T09:23:23;63.25;;;50.05;;
57225;SDS011;43082;43.568;22.256;2023-12-14T09:25:48;62.25;;;50.05;;
57225;SDS011;43082;43.568;22.256;2023-12-14T09:28:14;46.88;;;38.72;;
57225;SDS011;43082;43.568;22.256;2023-12-14T09:30:40;48.50;;;41.08;;
57225;SDS011;43082;43.568;22.256;2023-12-14T09:33:05;47.47;;;40.58;;
57225;SDS011;43082;43.568;22.256;2023-12-14T09:35:33;54.35;;;44.20;;
57225;SDS011;43082;43.568;22.256;2023-12-14T09:38:00;54.50;;;46.08;;
57225;SDS011;43082;43.568;22.256;2023-12-14T09:40:26;50.83;;;42.53;;
57225;SDS011;43082;43.568;22.256;2023-12-14T09:42:51;48.28;;;40.70;;
57225;SDS011;43082;43.568;22.256;2023-12-14T09:45:17;57.00;;;48.17;;
57225;SDS011;43082;43.568;22.256;2023-12-14T09:47:44;63.13;;;52.72;;
57225;SDS011;43082;43.568;22.256;2023-12-14T09:50:11;58.75;;;49.20;;
57225;SDS011;43082;43.568;22.256;2023-12-14T09:52:39;56.60;;;48.80;;
57225;SDS011;43082;43.568;22.256;2023-12-14T09:55:04;74.03;;;60.63;;
57225;SDS011;43082;43.568;22.256;2023-12-14T09:57:30;70.03;;;57.17;;
57225;SDS011;43082;43.568;22.256;2023-12-14T09:59:56;129.45;;;108.65;;
57225;SDS011;43082;43.568;22.256;2023-12-14T10:02:25;123.45;;;102.60;;
57225;SDS011;43082;43.568;22.256;2023-12-14T10:04:51;104.32;;;88.50;;
57225;SDS011;43082;43.568;22.256;2023-12-14T10:07:18;89.93;;;71.82;;
57225;SDS011;43082;43.568;22.256;2023-12-14T10:09:43;82.00;;;61.13;;
57225;SDS011;43082;43.568;22.256;2023-12-14T10:12:09;71.10;;;54.78;;
57225;SDS011;43082;43.568;22.256;2023-12-14T10:14:36;61.60;;;49.97;;
57225;SDS011;43082;43.568;22.256;2023-12-14T10:17:16;54.10;;;43.33;;
57225;SDS011;43082;43.568;22.256;2023-12-14T10:19:44;36.90;;;30.58;;
57225;SDS011;43082;43.568;22.256;2023-12-14T10:22:10;27.98;;;22.45;;
57225;SDS011;43082;43.568;22.256;2023-12-14T10:24:36;28.27;;;22.75;;
57225;SDS011;43082;43.568;22.256;2023-12-14T10:27:05;38.80;;;32.67;;
57225;SDS011;43082;43.568;22.256;2023-12-14T10:29:34;51.70;;;40.95;;
57225;SDS011;43082;43.568;22.256;2023-12-14T10:32:01;49.65;;;39.78;;
57225;SDS011;43082;43.568;22.256;2023-12-14T10:34:31;38.03;;;30.90;;
57225;SDS011;43082;43.568;22.256;2023-12-14T10:36:57;29.60;;;24.42;;
57225;SDS011;43082;43.568;22.256;2023-12-14T10:39:23;21.92;;;17.25;;
57225;SDS011;43082;43.568;22.256;2023-12-14T10:41:49;19.90;;;17.20;;
57225;SDS011;43082;43.568;22.256;2023-12-14T10:44:19;20.60;;;16.52;;
57225;SDS011;43082;43.568;22.256;2023-12-14T10:46:46;18.15;;;14.90;;
57225;SDS011;43082;43.568;22.256;2023-12-14T10:49:13;11.38;;;7.72;;
57225;SDS011;43082;43.568;22.256;2023-12-14T10:51:39;13.48;;;10.60;;
57225;SDS011;43082;43.568;22.256;2023-12-14T10:54:07;11.38;;;7.35;;
57225;SDS011;43082;43.568;22.256;2023-12-14T10:56:33;19.40;;;14.00;;
57225;SDS011;43082;43.568;22.256;2023-12-14T10:58:59;14.68;;;10.77;;
57225;SDS011;43082;43.568;22.256;2023-12-14T11:01:26;18.83;;;13.73;;
57225;SDS011;43082;43.568;22.256;2023-12-14T11:03:55;25.30;;;19.05;;
57225;SDS011;43082;43.568;22.256;2023-12-14T11:08:54;28.35;;;21.92;;
57225;SDS011;43082;43.568;22.256;2023-12-14T11:11:21;61.78;;;42.88;;
57225;SDS011;43082;43.568;22.256;2023-12-14T11:13:50;28.40;;;19.05;;
57225;SDS011;43082;43.568;22.256;2023-12-14T11:16:21;16.88;;;11.50;;
57225;SDS011;43082;43.568;22.256;2023-12-14T11:19:23;25.58;;;17.48;;
57225;SDS011;43082;43.568;22.256;2023-12-14T11:24:23;28.73;;;20.13;;
57225;SDS011;43082;43.568;22.256;2023-12-14T11:26:49;32.45;;;21.90;;
57225;SDS011;43082;43.568;22.256;2023-12-14T11:29:15;20.88;;;14.32;;
57225;SDS011;43082;43.568;22.256;2023-12-14T11:31:40;34.83;;;25.30;;
57225;SDS011;43082;43.568;22.256;2023-12-14T11:34:06;32.58;;;23.40;;
57225;SDS011;43082;43.568;22.256;2023-12-14T11:36:32;24.70;;;18.63;;
57225;SDS011;43082;43.568;22.256;2023-12-14T11:38:58;19.15;;;13.30;;
57225;SDS011;43082;43.568;22.256;2023-12-14T11:41:23;17.52;;;12.85;;
57225;SDS011;43082;43.568;22.256;2023-12-14T11:43:50;22.52;;;14.20;;
57225;SDS011;43082;43.568;22.256;2023-12-14T11:46:16;19.58;;;13.75;;
57225;SDS011;43082;43.568;22.256;2023-12-14T11:48:45;23.65;;;18.45;;
57225;SDS011;43082;43.568;22.256;2023-12-14T11:51:11;15.15;;;10.30;;
57225;SDS011;43082;43.568;22.256;2023-12-14T11:53:37;15.40;;;11.60;;
57225;SDS011;43082;43.568;22.256;2023-12-14T11:56:04;18.20;;;13.10;;
57225;SDS011;43082;43.568;22.256;2023-12-14T11:58:31;16.52;;;11.18;;
57225;SDS011;43082;43.568;22.256;2023-12-14T12:01:10;15.68;;;11.15;;
57225;SDS011;43082;43.568;22.256;2023-12-14T12:03:41;29.02;;;18.42;;
57225;SDS011;43082;43.568;22.256;2023-12-14T12:06:09;14.38;;;10.73;;
57225;SDS011;43082;43.568;22.256;2023-12-14T12:08:45;21.52;;;11.65;;
57225;SDS011;43082;43.568;22.256;2023-12-14T12:11:10;16.73;;;9.45;;
57225;SDS011;43082;43.568;22.256;2023-12-14T12:13:35;22.42;;;15.38;;
57225;SDS011;43082;43.568;22.256;2023-12-14T12:16:01;19.05;;;13.93;;
57225;SDS011;43082;43.568;22.256;2023-12-14T12:18:26;16.60;;;11.13;;
57225;SDS011;43082;43.568;22.256;2023-12-14T12:20:52;29.23;;;19.52;;
57225;SDS011;43082;43.568;22.256;2023-12-14T12:23:18;20.02;;;11.05;;
57225;SDS011;43082;43.568;22.256;2023-12-14T12:25:44;19.17;;;12.65;;
57225;SDS011;43082;43.568;22.256;2023-12-14T12:28:09;25.27;;;19.48;;
57225;SDS011;43082;43.568;22.256;2023-12-14T12:30:35;28.33;;;20.83;;
57225;SDS011;43082;43.568;22.256;2023-12-14T12:33:00;24.38;;;17.48;;
57225;SDS011;43082;43.568;22.256;2023-12-14T12:35:26;26.95;;;19.27;;
57225;SDS011;43082;43.568;22.256;2023-12-14T12:37:51;19.83;;;13.70;;
57225;SDS011;43082;43.568;22.256;2023-12-14T12:40:23;30.27;;;20.80;;
57225;SDS011;43082;43.568;22.256;2023-12-14T12:42:51;24.98;;;18.45;;
57225;SDS011;43082;43.568;22.256;2023-12-14T12:45:17;22.42;;;14.10;;
57225;SDS011;43082;43.568;22.256;2023-12-14T12:47:43;24.42;;;17.58;;
57225;SDS011;43082;43.568;22.256;2023-12-14T12:50:09;26.10;;;20.30;;
57225;SDS011;43082;43.568;22.256;2023-12-14T12:52:34;19.52;;;13.40;;
57225;SDS011;43082;43.568;22.256;2023-12-14T12:55:00;17.50;;;13.18;;
57225;SDS011;43082;43.568;22.256;2023-12-14T12:57:25;41.38;;;31.77;;
57225;SDS011;43082;43.568;22.256;2023-12-14T12:59:51;17.38;;;12.70;;
57225;SDS011;43082;43.568;22.256;2023-12-14T13:02:17;21.85;;;17.00;;
57225;SDS011;43082;43.568;22.256;2023-12-14T13:04:42;20.85;;;15.30;;
57225;SDS011;43082;43.568;22.256;2023-12-14T13:07:08;39.72;;;31.90;;
57225;SDS011;43082;43.568;22.256;2023-12-14T13:09:33;38.20;;;30.95;;
57225;SDS011;43082;43.568;22.256;2023-12-14T13:11:59;44.47;;;36.55;;
57225;SDS011;43082;43.568;22.256;2023-12-14T13:14:24;34.60;;;27.33;;
57225;SDS011;43082;43.568;22.256;2023-12-14T13:16:50;24.00;;;18.98;;
57225;SDS011;43082;43.568;22.256;2023-12-14T13:19:15;27.83;;;21.73;;
57225;SDS011;43082;43.568;22.256;2023-12-14T13:21:41;24.77;;;18.67;;
57225;SDS011;43082;43.568;22.256;2023-12-14T13:24:06;23.98;;;19.55;;
57225;SDS011;43082;43.568;22.256;2023-12-14T13:26:32;21.65;;;16.13;;
57225;SDS011;43082;43.568;22.256;2023-12-14T13:28:58;26.30;;;16.00;;
57225;SDS011;43082;43.568;22.256;2023-12-14T13:31:23;33.10;;;24.77;;
57225;SDS011;43082;43.568;22.256;2023-12-14T13:33:49;28.63;;;21.02;;
57225;SDS011;43082;43.568;22.256;2023-12-14T13:36:18;41.65;;;32.53;;
57225;SDS011;43082;43.568;22.256;2023-12-14T13:38:44;41.85;;;32.92;;
57225;SDS011;43082;43.568;22.256;2023-12-14T13:41:10;42.75;;;33.35;;
57225;SDS011;43082;43.568;22.256;2023-12-14T13:43:36;42.28;;;32.72;;
57225;SDS011;43082;43.568;22.256;2023-12-14T13:46:01;39.03;;;30.77;;
57225;SDS011;43082;43.568;22.256;2023-12-14T13:48:27;43.03;;;34.17;;
57225;SDS011;43082;43.568;22.256;2023-12-14T13:50:56;57.95;;;44.28;;
57225;SDS011;43082;43.568;22.256;2023-12-14T13:53:22;84.90;;;62.13;;
57225;SDS011;43082;43.568;22.256;2023-12-14T13:55:48;41.30;;;29.95;;
57225;SDS011;43082;43.568;22.256;2023-12-14T13:58:14;33.00;;;23.88;;
57225;SDS011;43082;43.568;22.256;2023-12-14T14:00:40;68.38;;;50.83;;
57225;SDS011;43082;43.568;22.256;2023-12-14T14:03:05;43.63;;;34.00;;
57225;SDS011;43082;43.568;22.256;2023-12-14T14:05:31;80.97;;;63.00;;
57225;SDS011;43082;43.568;22.256;2023-12-14T14:07:57;75.43;;;56.85;;